Tiempo atmosférico en la estación meteorológica de Castellote, Teruel (755 m.)



Fecha
DESCASC
Temp. máxima en grados centígrados (hora)
DESCASC
Temp. mínima en grados centígrados (hora)
DESCASC
Temp. media en grados centígrados
DESCASC
Racha de viento máxima en m/sg (hora)
DESCASC
Velocidad máxima media en intervalos de 10 minutos(hora)
DESCASC
Precipitaciones diarias en mm
DESCASC
Precipitaciones de 00:00 a 06:00 en mm
DESCASC
Precipitaciones de 06:00 a 12:00 en mm
DESCASC
Precipitaciones de 12:00 a 18:00 en mm
DESCASC
Precipitaciones de 18:00 a 24:00 en mm
DESCASC
22-11-2020 15 (12:50) 1.7 (06:50) 8.4 6.11 (15:00) 2.5 (14:40) 0 0 0 0 0
21-11-2020 14 (14:50) 1.9 (08:00) 7.9 5.56 (01:00) 2.5 (04:20) 0 0 0 0 0
20-11-2020 12.8 (15:30) 6.5 (06:50) 9.7 15.28 (08:10) 6.67 (08:10) 0 0 0 0 0
19-11-2020 19 (14:10) 7.8 (00:00) 13.4 14.72 (19:20) 7.78 (19:10) 0 0 0 0 0
18-11-2020 20.9 (14:10) 8.2 (00:00) 14.5 4.72 (16:30) 2.5 (16:40) 0 0 0 0 0
17-11-2020 18.3 (14:40) 6.4 (00:00) 12.3 4.72 (13:00) 2.22 (22:30) 0 0 0 0 0
16-11-2020 17.6 (01:40) 8.6 (00:00) 13.1 14.17 (00:20) 8.06 (01:00) 0 0 0 0 0
15-11-2020 21.7 (14:10) 10.6 (00:00) 16.2 11.11 (23:50) 5.83 (14:30) 0 0 0 0 0
14-11-2020 17.5 (12:10) 7.8 (00:00) 12.7 3.06 (12:30) 2.22 (06:40) 0.2 0 0 0.2 0
13-11-2020 17.9 (14:00) 7.4 (00:00) 12.6 7.22 (14:40) 3.89 (16:00) 0 0 0 0 0
12-11-2020 16 (14:10) 8 (00:00) 12 4.44 (14:50) 2.5 (15:40) 0 0 0 0 0
11-11-2020 18 (13:20) 5.7 (00:00) 11.8 5.28 (14:30) 3.06 (14:30) 0 0 0 0 0
10-11-2020 17.2 (15:20) 7.4 (00:00) 12.3 8.33 (15:50) 4.17 (14:50) 0 0 0 0 0
09-11-2020 18.4 (13:40) 6.6 (00:00) 12.5 8.06 (16:00) 3.33 (14:10) 0 0 0 0 0
08-11-2020 18.6 (14:40) 7.8 (00:00) 13.2 5.28 (17:00) 3.33 (17:00) 0 0 0 0 0
07-11-2020 17.4 (14:20) 10 (00:00) 13.7 16.67 (07:20) 8.33 (15:10) 16 3.2 12.8 0 0
06-11-2020 15.9 (15:00) 9.7 (00:00) 12.8 8.89 (18:20) 4.44 (18:40) 0.2 0.2 0 0 0
05-11-2020 10.4 (23:50) 5.7 (00:00) 8 7.22 (19:10) 2.78 (20:00) 16.6 0.2 0 0.2 16.2
04-11-2020 7.6 (00:00) 5.1 (00:00) 6.3 10.83 (00:30) 4.17 (04:00) 33.6 12.2 14.4 6.2 0.8
03-11-2020 14.4 (00:00) 7.6 (00:00) 11 9.44 (23:30) 4.17 (23:20) 4 0 0 3.4 0.6
02-11-2020 25 (14:40) 10.2 (00:00) 17.6 7.22 (16:50) 3.06 (15:00) 0 0 0 0 0
01-11-2020 24.5 (13:50) 11 (00:00) 17.8 7.5 (14:40) 4.72 (14:40) 0 0 0 0 0
31-10-2020 24.3 (15:00) 8.6 (00:00) 16.4 7.22 (15:20) 4.17 (15:30) 0 0 0 0 0
30-10-2020 22.8 (13:10) 8.1 (00:00) 15.4 6.39 (14:30) 3.06 (14:30) 0 0 0 0 0
29-10-2020 22.7 (15:00) 9.3 (00:00) 16 6.67 (15:20) 3.89 (16:50) 0 0 0 0 0
28-10-2020 19.8 (12:00) 10.4 (00:00) 15.1 7.5 (13:30) 3.89 (13:20) 0 0 0 0 0
27-10-2020 17.6 (16:00) 7.7 (00:00) 12.7 14.72 (02:30) 8.61 (01:40) 0 0 0 0 0

Gráficas

Temp. máximas Temp. mínimas Temp. medias Precipitaciones Rachas de viento máximas Velocidades máximas media en intervalos de 10 minutos

Datos horarios

Fecha y hora oficial Temperatura (ºC) Velocidad del viento (km/h) Dirección del viento Racha (km/h) Dirección de racha Precipitación (mm) Presión (hPa) Tendencia (hPa) Humedad (%)
2020-11-25 23:00:00 7.9 6 Sur 16 Sudoeste 0 -- -- 79
2020-11-25 22:00:00 7.7 7 Sudeste 18 Sudoeste 0 -- -- 81
2020-11-25 21:00:00 8.5 6 Sudoeste 13 Sudoeste 0 -- -- 77
2020-11-25 20:00:00 9.5 0 Calma 12 Sur 0 -- -- 71
2020-11-25 19:00:00 10.3 7 Sudoeste 16 Este 0 -- -- 68
2020-11-25 18:00:00 10.3 9 Este 16 Este 0 -- -- 71
2020-11-25 17:00:00 10.5 5 Este 13 Norte 0 -- -- 63
2020-11-25 16:00:00 11.1 4 Noroeste 13 Nordeste 0 -- -- 56
2020-11-25 15:00:00 11.9 5 Norte 12 Norte 0 -- -- 52
2020-11-25 14:00:00 11.9 5 Norte 15 Nordeste 0 -- -- 50
2020-11-25 13:00:00 12.1 6 Norte 17 Nordeste 0 -- -- 48
2020-11-25 12:00:00 12.4 4 Noroeste 9 Este 0 -- -- 49
2020-11-25 11:00:00 10.2 2 Sudeste 7 Este 0 -- -- 55
2020-11-25 10:00:00 7.2 4 Este 11 Nordeste 0 -- -- 59
2020-11-25 09:00:00 5 7 Este 9 Nordeste 0 -- -- 63
2020-11-25 08:00:00 3.4 7 Este 8 Nordeste 0 -- -- 66
2020-11-25 07:00:00 3.1 6 Este 10 Este 0 -- -- 69
2020-11-25 06:00:00 4.3 6 Este 9 Este 0 -- -- 63
2020-11-25 05:00:00 4.4 2 Nordeste 9 Este 0 -- -- 66
2020-11-25 04:00:00 5.5 5 Este 10 Nordeste 0 -- -- 64
2020-11-25 03:00:00 4.7 7 Este 9 Este 0 -- -- 73
2020-11-25 02:00:00 5.7 3 Este 10 Este 0 -- -- 69
2020-11-25 01:00:00 6.2 4 Este 10 Este 0 -- -- 69
2020-11-25 00:00:00 6.4 3 Sudeste 10 Este 0 -- -- 75
2020-11-24 23:00:00 6.9 5 Este 6 Este 0 -- -- 78
2020-11-24 22:00:00 7.5 3 Sudeste 7 Sudeste 0 -- -- 76
2020-11-24 21:00:00 8 3 Este 8 Este 0 -- -- 73
2020-11-24 20:00:00 8.9 4 Este 8 Sudeste 0 -- -- 72
2020-11-24 19:00:00 9.6 0 Calma 4 Sur 0 -- -- 65
2020-11-24 18:00:00 10.2 0 Calma 4 Oeste 0 -- -- 63
2020-11-24 17:00:00 11.3 2 Oeste 13 Norte 0 -- -- 60
2020-11-24 16:00:00 12.8 9 Norte 18 Nordeste 0 -- -- 54
2020-11-24 15:00:00 14.2 9 Norte 18 Norte 0 -- -- 48
2020-11-24 14:00:00 14.9 10 Norte 18 Norte 0 -- -- 44
2020-11-24 13:00:00 14.7 3 Nordeste 7 Este 0 -- -- 41
2020-11-24 12:00:00 12.7 3 Este 7 Este 0 -- -- 46
2020-11-24 11:00:00 10.4 3 Este 6 Este 0 -- -- 54
2020-11-24 10:00:00 7.3 4 Este 8 Este 0 -- -- 59
2020-11-24 09:00:00 4.6 5 Nordeste 8 Nordeste 0 -- -- 67
2020-11-24 08:00:00 3.3 5 Nordeste 8 Este 0 -- -- 72
2020-11-24 07:00:00 3.7 3 Este 8 Este 0 -- -- 72
2020-11-24 06:00:00 3.7 4 Este 6 Este 0 -- -- 72
2020-11-24 05:00:00 4.2 4 Este 8 Este 0 -- -- 72
2020-11-24 04:00:00 4.1 4 Este 5 Nordeste 0 -- -- 72
2020-11-24 03:00:00 4.2 4 Este 7 Este 0 -- -- 72
2020-11-24 02:00:00 4.6 3 Este 5 Este 0 -- -- 72
2020-11-24 01:00:00 4.4 4 Este 6 Este 0 -- -- 73
2020-11-24 00:00:00 4.4 5 Este 7 Este 0 -- -- 72
2020-11-23 23:00:00 5.4 5 Este 9 Este 0 -- -- 69
2020-11-23 22:00:00 5.1 5 Este 7 Nordeste 0 -- -- 71
2020-11-23 21:00:00 6 3 Este 9 Nordeste 0 -- -- 69
2020-11-23 20:00:00 7 4 Este 5 Este 0 -- -- 65
2020-11-23 19:00:00 7.8 0 Calma 6 Noroeste 0 -- -- 62
2020-11-23 18:00:00 8.9 4 Noroeste 15 Norte 0 -- -- 58
2020-11-23 17:00:00 11.4 7 Nordeste 14 Nordeste 0 -- -- 51
2020-11-23 16:00:00 12.6 7 Norte 17 Nordeste 0 -- -- 50
2020-11-23 15:00:00 12.5 12 Nordeste 22 Este 0 -- -- 51
2020-11-23 14:00:00 13.2 9 Nordeste 16 Este 0 -- -- 46
2020-11-23 13:00:00 13.4 3 Nordeste 13 Norte 0 -- -- 46
2020-11-23 12:00:00 12.1 4 Sudeste 7 Sur 0 -- -- 46
2020-11-23 11:00:00 9.3 4 Este 6 Este 0 -- -- 55
2020-11-23 10:00:00 7 0 Calma 5 Este 0 -- -- 59
2020-11-23 09:00:00 4.1 4 Este 9 Este 0 -- -- 67
2020-11-23 08:00:00 2.5 5 Este 8 Nordeste 0 -- -- 72
2020-11-23 07:00:00 3 2 Este 5 Este 0 -- -- 71
2020-11-23 06:00:00 3.3 3 Este 5 Nordeste 0 -- -- 69
2020-11-23 05:00:00 3.3 5 Este 5 Este 0 -- -- 71
2020-11-23 04:00:00 4.2 0 Calma 6 Nordeste 0 -- -- 68
2020-11-23 03:00:00 4.2 4 Este 6 Este 0 -- -- 68
2020-11-23 02:00:00 4.5 4 Este 4 Este 0 -- -- 68
2020-11-23 01:00:00 5 3 Este 7 Este 0 -- -- 67
2020-11-23 00:00:00 5.2 4 Este 6 Nordeste 0 -- -- 69
2020-11-22 23:00:00 5.8 5 Este 7 Este 0 -- -- 69
2020-11-22 22:00:00 6.3 5 Este 6 Este 0 -- -- 66
2020-11-22 21:00:00 7.1 3 Este 5 Este 0 -- -- 64
2020-11-22 20:00:00 7.5 3 Sudeste 5 Este 0 -- -- 63
2020-11-22 19:00:00 8.8 0 Calma 4 Oeste 0 -- -- 56
2020-11-22 18:00:00 9.3 3 Oeste 10 Noroeste 0 -- -- 54
2020-11-22 17:00:00 13.2 4 Norte 16 Noroeste 0 -- -- 44
2020-11-22 16:00:00 13.9 8 Norte 17 Nordeste 0 -- -- 42
2020-11-22 15:00:00 14.6 8 Norte 22 Norte 0 -- -- 40
2020-11-22 14:00:00 14 9 Nordeste 18 Nordeste 0 -- -- 37
2020-11-22 13:00:00 15 4 Nordeste 9 Noroeste 0 -- -- 37
2020-11-22 12:00:00 13.5 3 Este 5 Nordeste 0 -- -- 37
2020-11-22 11:00:00 10.4 2 Sudeste 8 Este 0 -- -- 42
2020-11-22 10:00:00 7.6 3 Este 7 Este 0 -- -- 48
2020-11-22 09:00:00 4.4 4 Este 12 Este 0 -- -- 49
2020-11-22 08:00:00 2.3 5 Este 10 Este 0 -- -- 54
2020-11-22 07:00:00 1.7 7 Este 12 Este 0 -- -- 59
2020-11-22 06:00:00 2.6 3 Este 7 Este 0 -- -- 57
2020-11-22 05:00:00 2.7 7 Este 9 Nordeste 0 -- -- 59
2020-11-22 04:00:00 3.6 4 Este 6 Este 0 -- -- 56
2020-11-22 03:00:00 3.8 0 Calma 6 Este 0 -- -- 56
2020-11-22 02:00:00 4.2 5 Este 10 Este 0 -- -- 56
2020-11-22 01:00:00 3.9 8 Este 11 Este 0 -- -- 58
2020-11-22 00:00:00 4.2 7 Este 10 Este 0 -- -- 58
2020-11-21 23:00:00 4.8 6 Este 10 Este 0 -- -- 57
2020-11-21 22:00:00 4.9 7 Este 12 Este 0 -- -- 59
2020-11-21 21:00:00 5.2 6 Este 9 Este 0 -- -- 58
2020-11-21 20:00:00 6.5 2 Sudeste 6 Este 0 -- -- 52
2020-11-21 19:00:00 7.8 2 Sudeste 5 Sudeste 0 -- -- 45
2020-11-21 18:00:00 9.4 2 Este 12 Norte 0 -- -- 38
2020-11-21 17:00:00 12.9 3 Norte 11 Norte 0 -- -- 33
2020-11-21 16:00:00 13.9 5 Norte 16 Norte 0 -- -- 29
2020-11-21 15:00:00 13.9 6 Norte 13 Norte 0 -- -- 30
2020-11-21 14:00:00 13.3 4 Norte 12 Norte 0 -- -- 30
2020-11-21 13:00:00 12 7 Este 15 Este 0 -- -- 29
2020-11-21 12:00:00 10.7 5 Este 9 Este 0 -- -- 36
2020-11-21 11:00:00 8.1 4 Este 7 Este 0 -- -- 40
2020-11-21 10:00:00 5.5 4 Este 8 Nordeste 0 -- -- 49
2020-11-21 09:00:00 3 5 Este 13 Este 0 -- -- 54
2020-11-21 08:00:00 1.9 5 Este 8 Este 0 -- -- 57
2020-11-21 07:00:00 2.4 4 Este 12 Este 0 -- -- 55
2020-11-21 06:00:00 2.9 6 Este 12 Este 0 -- -- 52
2020-11-21 05:00:00 3.6 8 Este 14 Este 0 -- -- 49
2020-11-21 04:00:00 3.8 6 Este 16 Este 0 -- -- 49
2020-11-21 03:00:00 5.6 6 Este 10 Este 0 -- -- 41
2020-11-21 02:00:00 6 5 Sudeste 15 Este 0 -- -- 36
2020-11-21 01:00:00 6.8 7 Oeste 20 Noroeste 0 -- -- 34
2020-11-21 00:00:00 6.9 5 Sudeste 31 Oeste 0 -- -- 36
2020-11-20 23:00:00 7.1 8 Oeste 25 Oeste 0 -- -- 38
2020-11-20 22:00:00 7.3 9 Noroeste 34 Oeste 0 -- -- 43
2020-11-20 21:00:00 7.5 11 Sudoeste 35 Este 0 -- -- 44
2020-11-20 20:00:00 7.9 6 Sudoeste 31 Oeste 0 -- -- 46
2020-11-20 19:00:00 8.6 6 Noroeste 23 Oeste 0 -- -- 50
2020-11-20 18:00:00 9.5 6 Noroeste 33 Norte 0 -- -- 50
2020-11-20 17:00:00 11.8 14 Noroeste 32 Noroeste 0 -- -- 43
2020-11-20 16:00:00 12.8 15 Noroeste 37 Noroeste 0 -- -- 42
2020-11-20 15:00:00 12.3 17 Oeste 40 Sudoeste 0 -- -- 43
2020-11-20 14:00:00 12.4 19 Oeste 40 Noroeste 0 -- -- 44
2020-11-20 13:00:00 11.9 12 Noroeste 48 Noroeste 0 -- -- 46
2020-11-20 12:00:00 10.7 10 Noroeste 40 Oeste 0 -- -- 53
2020-11-20 11:00:00 9.5 10 Sudoeste 51 Noroeste 0 -- -- 58
2020-11-20 10:00:00 8.3 15 Oeste 39 Noroeste 0 -- -- 61
2020-11-20 09:00:00 7.2 14 Oeste 55 Oeste 0 -- -- 59
2020-11-20 08:00:00 6.5 15 Oeste 46 Oeste 0 -- -- 61
2020-11-20 07:00:00 6.5 22 Oeste 36 Oeste 0 -- -- 62
2020-11-20 06:00:00 6.8 15 Noroeste 36 Noroeste 0 -- -- 63
2020-11-20 05:00:00 6.9 2 Nordeste 24 Oeste 0 -- -- 63
2020-11-20 04:00:00 7 4 Sudoeste 18 Sudoeste 0 -- -- 68
2020-11-20 03:00:00 7.3 6 Oeste 22 Oeste 0 -- -- 72
2020-11-20 02:00:00 7.5 10 Oeste 20 Oeste 0 -- -- 78
2020-11-20 01:00:00 8.2 13 Oeste 32 Oeste 0 -- -- 73
2020-11-20 00:00:00 9 6 Oeste 24 Norte 0 -- -- 71
2020-11-19 23:00:00 9.5 11 Este 36 Noroeste 0 -- -- 72
2020-11-19 22:00:00 9.7 6 Noroeste 39 Sur 0 -- -- 75
2020-11-19 21:00:00 10.5 9 Oeste 37 Oeste 0 -- -- 77
2020-11-19 20:00:00 11.3 12 Oeste 53 Oeste 0 -- -- 76
2020-11-19 19:00:00 12.8 21 Oeste 41 Oeste 0 -- -- 72
2020-11-19 18:00:00 14.6 14 Noroeste 33 Noroeste 0 -- -- 67
2020-11-19 17:00:00 16.8 13 Noroeste 39 Oeste 0 -- -- 61
2020-11-19 16:00:00 17.5 13 Oeste 45 Norte 0 -- -- 61
2020-11-19 15:00:00 17.7 25 Noroeste 45 Noroeste 0 -- -- 60
2020-11-19 14:00:00 18.7 12 Oeste 28 Norte 0 -- -- 58
2020-11-19 13:00:00 17.9 13 Noroeste 30 Noroeste 0 -- -- 60
2020-11-19 12:00:00 16.3 14 Noroeste 30 Noroeste 0 -- -- 63
2020-11-19 11:00:00 15.5 9 Oeste 27 Noroeste 0 -- -- 64
2020-11-19 10:00:00 13.3 4 Este 7 Nordeste 0 -- -- 69
2020-11-19 09:00:00 9.8 2 Oeste 19 Noroeste 0 -- -- 76
2020-11-19 08:00:00 8.1 3 Sudeste 7 Sudeste 0 -- -- 80
2020-11-19 07:00:00 7.8 3 Sudoeste 8 Sudeste 0 -- -- 81
2020-11-19 06:00:00 8.2 4 Este 9 Este 0 -- -- 80
2020-11-19 05:00:00 8.5 7 Este 10 Este 0 -- -- 78
2020-11-19 04:00:00 8.6 5 Este 6 Este 0 -- -- 80
2020-11-19 03:00:00 9.4 4 Este 6 Este 0 -- -- 78
2020-11-19 02:00:00 10 0 Calma 4 Este 0 -- -- 77
2020-11-19 01:00:00 10.2 0 Calma 3 Este 0 -- -- 76
2020-11-19 00:00:00 11 0 Calma 5 Sur 0 -- -- 72
2020-11-18 23:00:00 11.2 0 Calma 5 Nordeste 0 -- -- 71
2020-11-18 22:00:00 11.6 0 Calma 5 Nordeste 0 -- -- 71
2020-11-18 21:00:00 13.2 3 Nordeste 5 Este 0 -- -- 65
2020-11-18 20:00:00 14.1 0 Calma 4 Oeste 0 -- -- 63
2020-11-18 19:00:00 14.6 3 Sudoeste 6 Nordeste 0 -- -- 61
2020-11-18 18:00:00 15.7 4 Norte 11 Norte 0 -- -- 57
2020-11-18 17:00:00 18.4 4 Norte 17 Norte 0 -- -- 51
2020-11-18 16:00:00 20.2 6 Nordeste 15 Norte 0 -- -- 43
2020-11-18 15:00:00 20.7 6 Nordeste 13 Norte 0 -- -- 42
2020-11-18 14:00:00 20.8 4 Norte 14 Norte 0 -- -- 46
2020-11-18 13:00:00 19 5 Norte 14 Norte 0 -- -- 47
2020-11-18 12:00:00 18.1 3 Este 7 Este 0 -- -- 50
2020-11-18 11:00:00 16.3 2 Este 5 Este 0 -- -- 55
2020-11-18 10:00:00 13.1 0 Calma 9 Este 0 -- -- 61
2020-11-18 09:00:00 10.2 7 Este 12 Este 0 -- -- 68
2020-11-18 08:00:00 8.3 7 Nordeste 10 Este 0 -- -- 72
2020-11-18 07:00:00 8.4 6 Este 9 Nordeste 0 -- -- 71
2020-11-18 06:00:00 8.5 8 Este 11 Este 0 -- -- 71
2020-11-18 05:00:00 8.8 4 Este 10 Este 0 -- -- 70
2020-11-18 04:00:00 9 5 Nordeste 8 Este 0 -- -- 70
2020-11-18 03:00:00 9.3 6 Este 9 Este 0 -- -- 69
2020-11-18 02:00:00 9.6 3 Este 7 Nordeste 0 -- -- 69
2020-11-18 01:00:00 9.6 5 Este 8 Este 0 -- -- 71
2020-11-18 00:00:00 9.8 5 Este 12 Este 0 -- -- 72
2020-11-17 23:00:00 9.8 4 Este 10 Este 0 -- -- 73
2020-11-17 22:00:00 10.4 6 Este 9 Este 0 -- -- 71
2020-11-17 21:00:00 10.6 6 Sudeste 9 Sudeste 0 -- -- 70
2020-11-17 20:00:00 11.6 5 Este 8 Este 0 -- -- 67
2020-11-17 19:00:00 13.1 2 Sur 5 Sudoeste 0 -- -- 61
2020-11-17 18:00:00 14.1 4 Sudoeste 7 Oeste 0 -- -- 57
2020-11-17 17:00:00 17.2 2 Norte 14 Nordeste 0 -- -- 48
2020-11-17 16:00:00 18.2 4 Norte 15 Nordeste 0 -- -- 46
2020-11-17 15:00:00 18.2 6 Norte 12 Norte 0 -- -- 50
2020-11-17 14:00:00 17.5 6 Norte 14 Nordeste 0 -- -- 54
2020-11-17 13:00:00 16.1 7 Nordeste 17 Nordeste 0 -- -- 57
2020-11-17 12:00:00 15.9 4 Este 8 Sudeste 0 -- -- 62
2020-11-17 11:00:00 14.1 2 Nordeste 6 Este 0 -- -- 71
2020-11-17 10:00:00 11.7 0 Calma 6 Este 0 -- -- 76
2020-11-17 09:00:00 9.1 0 Calma 8 Nordeste 0 -- -- 84
2020-11-17 08:00:00 7 5 Nordeste 9 Este 0 -- -- 92
2020-11-17 07:00:00 6.8 5 Este 10 Nordeste 0 -- -- 94
2020-11-17 06:00:00 6.9 0 Calma 6 Este 0 -- -- 95
2020-11-17 05:00:00 6.9 5 Nordeste 6 Nordeste 0 -- -- 95
2020-11-17 04:00:00 6.8 3 Este 5 Este 0 -- -- 94
2020-11-17 03:00:00 7.2 3 Este 3 Nordeste 0 -- -- 91
2020-11-17 02:00:00 8.2 0 Calma 4 Noroeste 0 -- -- 90
2020-11-17 01:00:00 8.6 3 Nordeste 5 Sudoeste 0 -- -- 90
2020-11-17 00:00:00 8.6 0 Calma 5 Este 0 -- -- 89
2020-11-16 23:00:00 9.2 4 Este 6 Sur 0 -- -- 88
2020-11-16 22:00:00 9.4 2 Sudoeste 9 Nordeste 0 -- -- 87
2020-11-16 21:00:00 10.3 4 Norte 11 Norte 0 -- -- 83
2020-11-16 20:00:00 11.1 3 Sudoeste 5 Sudoeste 0 -- -- 80
2020-11-16 19:00:00 11.6 2 Sur 14 Norte 0 -- -- 78
2020-11-16 18:00:00 12.9 5 Norte 14 Norte 0 -- -- 73
2020-11-16 17:00:00 14.6 3 Este 16 Oeste 0 -- -- 66
2020-11-16 16:00:00 15.8 9 Oeste 26 Noroeste 0 -- -- 64
2020-11-16 15:00:00 15.5 14 Noroeste 27 Norte 0 -- -- 62
2020-11-16 14:00:00 14.4 10 Noroeste 25 Noroeste 0 -- -- 67
2020-11-16 13:00:00 13.8 12 Oeste 25 Oeste 0 -- -- 69
2020-11-16 12:00:00 14.2 5 Nordeste 28 Noroeste 0 -- -- 66
2020-11-16 11:00:00 14.1 8 Noroeste 24 Oeste 0 -- -- 70
2020-11-16 10:00:00 13.3 10 Oeste 32 Oeste 0 -- -- 75
2020-11-16 09:00:00 11.6 19 Oeste 38 Oeste 0 -- -- 79
2020-11-16 08:00:00 11.3 23 Oeste 39 Oeste 0 -- -- 85
2020-11-16 07:00:00 12.5 17 Oeste 32 Oeste 0 -- -- 87
2020-11-16 06:00:00 13.9 7 Nordeste 29 Sudoeste 0 -- -- 81
2020-11-16 05:00:00 15.9 8 Oeste 22 Noroeste 0 -- -- 69
2020-11-16 04:00:00 16.1 5 Oeste 24 Oeste 0 -- -- 66
2020-11-16 03:00:00 16.9 7 Oeste 36 Sudoeste 0 -- -- 62
2020-11-16 02:00:00 17.3 8 Oeste 42 Sudoeste 0 -- -- 59
2020-11-16 01:00:00 17.5 29 Sudoeste 51 Sudoeste 0 -- -- 59
2020-11-16 00:00:00 17.2 19 Sudoeste 40 Oeste 0 -- -- 60
2020-11-15 23:00:00 17.2 18 Sudoeste 31 Oeste 0 -- -- 60
2020-11-15 22:00:00 16.8 6 Sudoeste 15 Oeste 0 -- -- 62
2020-11-15 21:00:00 17 8 Sudoeste 19 Sudoeste 0 -- -- 62
2020-11-15 20:00:00 17 7 Sudoeste 15 Sur 0 -- -- 63
2020-11-15 19:00:00 17.4 4 Sudoeste 21 Sudoeste 0 -- -- 62
2020-11-15 18:00:00 17.8 12 Oeste 21 Sudoeste 0 -- -- 61
2020-11-15 17:00:00 19.3 5 Sudoeste 24 Noroeste 0 -- -- 56
2020-11-15 16:00:00 20.6 12 Oeste 29 Oeste 0 -- -- 51
2020-11-15 15:00:00 20.9 13 Sudoeste 37 Sudoeste 0 -- -- 49
2020-11-15 14:00:00 20.8 14 Sudoeste 37 Sudoeste 0 -- -- 51
2020-11-15 13:00:00 20.2 8 Sudoeste 27 Sur 0 -- -- 51
2020-11-15 12:00:00 19.2 6 Sur 11 Sur 0 -- -- 56
2020-11-15 11:00:00 17 4 Este 9 Este 0 -- -- 63
2020-11-15 10:00:00 14.1 2 Este 8 Este 0 -- -- 71
2020-11-15 09:00:00 12.2 2 Sudeste 5 Oeste 0 -- -- 77
2020-11-15 08:00:00 10.7 4 Este 6 Este 0 -- -- 83
2020-11-15 07:00:00 10.9 0 Calma 5 Sudeste 0 -- -- 85
2020-11-15 06:00:00 11.2 3 Este 5 Este 0 -- -- 84
2020-11-15 05:00:00 11.2 0 Calma 5 Este 0 -- -- 87
2020-11-15 04:00:00 11.3 0 Calma 4 Este 0 -- -- 90
2020-11-15 03:00:00 11.3 5 Este 6 Este 0 -- -- 92
2020-11-15 02:00:00 12 0 Calma 4 Nordeste 0 -- -- 88
2020-11-15 01:00:00 12 2 Nordeste 5 Nordeste 0 -- -- 90
2020-11-15 00:00:00 11.9 2 Este 5 Este 0 -- -- 90
2020-11-14 23:00:00 12.1 0 Calma 3 Sudoeste 0 -- -- 87
2020-11-14 22:00:00 11.9 0 Calma 3 Sudoeste 0 -- -- 89
2020-11-14 21:00:00 12 0 Calma 3 Sudoeste 0 -- -- 90
2020-11-14 20:00:00 12.6 2 Este 6 Noroeste 0 -- -- 84
2020-11-14 19:00:00 12.9 4 Oeste 5 Oeste 0 -- -- 79
2020-11-14 18:00:00 13.2 0 Calma 4 Este 0.2 -- -- 81
2020-11-14 17:00:00 13.8 2 Oeste 6 Oeste 0 -- -- 75
2020-11-14 16:00:00 15.3 0 Calma 10 Norte 0 -- -- 71
2020-11-14 15:00:00 17.2 3 Norte 9 Norte 0 -- -- 60
2020-11-14 14:00:00 16.7 2 Noroeste 8 Norte 0 -- -- 60
2020-11-14 13:00:00 16.8 2 Sudoeste 11 Este 0 -- -- 54
2020-11-14 12:00:00 16.6 3 Sur 7 Sur 0 -- -- 56
2020-11-14 11:00:00 13.1 4 Este 9 Nordeste 0 -- -- 70
2020-11-14 10:00:00 10.7 5 Este 8 Este 0 -- -- 77
2020-11-14 09:00:00 8.9 4 Nordeste 6 Nordeste 0 -- -- 84
2020-11-14 08:00:00 7.8 4 Este 8 Este 0 -- -- 86
2020-11-14 07:00:00 8 5 Este 10 Este 0 -- -- 86
2020-11-14 06:00:00 8.3 8 Este 9 Este 0 -- -- 86
2020-11-14 05:00:00 9.2 3 Sudeste 6 Este 0 -- -- 82
2020-11-14 04:00:00 9.8 3 Sudeste 5 Este 0 -- -- 80
2020-11-14 03:00:00 10.1 0 Calma 5 Este 0 -- -- 79
2020-11-14 02:00:00 9.9 3 Este 7 Sudeste 0 -- -- 80
2020-11-14 01:00:00 9.7 3 Este 7 Este 0 -- -- 82
2020-11-14 00:00:00 9.6 5 Este 10 Sudeste 0 -- -- 85
2020-11-13 23:00:00 10.1 5 Sudeste 9 Sudeste 0 -- -- 84
2020-11-13 22:00:00 10 2 Sudeste 5 Sur 0 -- -- 87
2020-11-13 21:00:00 10.3 0 Calma 4 Sudeste 0 -- -- 86
2020-11-13 20:00:00 10.6 0 Calma 3 Oeste 0 -- -- 86
2020-11-13 19:00:00 10.8 0 Calma 4 Sudoeste 0 -- -- 85
2020-11-13 18:00:00 11.5 3 Noroeste 12 Norte 0 -- -- 80
2020-11-13 17:00:00 12.6 4 Norte 21 Norte 0 -- -- 75
2020-11-13 16:00:00 13.3 14 Nordeste 23 Norte 0 -- -- 70
2020-11-13 15:00:00 16.2 7 Norte 26 Este 0 -- -- 59
2020-11-13 14:00:00 17.9 6 Norte 16 Este 0 -- -- 51
2020-11-13 13:00:00 15.6 8 Norte 16 Norte 0 -- -- 59
2020-11-13 12:00:00 16 4 Este 10 Este 0 -- -- 52
2020-11-13 11:00:00 13 3 Sur 8 Este 0 -- -- 59
2020-11-13 10:00:00 11 3 Sudeste 7 Nordeste 0 -- -- 61
2020-11-13 09:00:00 8.8 3 Este 9 Este 0 -- -- 68
2020-11-13 08:00:00 7.5 4 Este 8 Este 0 -- -- 70
2020-11-13 07:00:00 7.8 2 Este 6 Este 0 -- -- 70
2020-11-13 06:00:00 7.9 3 Sudeste 9 Este 0 -- -- 71
2020-11-13 05:00:00 7.8 3 Este 9 Este 0 -- -- 71
2020-11-13 04:00:00 7.7 5 Este 10 Este 0 -- -- 73
2020-11-13 03:00:00 8.2 4 Sudeste 8 Sudeste 0 -- -- 74
2020-11-13 02:00:00 8.1 4 Sudeste 8 Sudeste 0 -- -- 77
2020-11-13 01:00:00 8.5 3 Sudeste 8 Sur 0 -- -- 81
2020-11-13 00:00:00 9 4 Sur 8 Sur 0 -- -- 84
2020-11-12 23:00:00 9.2 4 Sudeste 8 Este 0 -- -- 87
2020-11-12 22:00:00 10 3 Sur 9 Sudeste 0 -- -- 87
2020-11-12 21:00:00 9.9 0 Calma 5 Sudeste 0 -- -- 87
2020-11-12 20:00:00 10.6 3 Este 5 Este 0 -- -- 86
2020-11-12 19:00:00 10.8 2 Sudoeste 3 Sudoeste 0 -- -- 85
2020-11-12 18:00:00 11.8 0 Calma 8 Norte 0 -- -- 80
2020-11-12 17:00:00 12.6 0 Calma 13 Norte 0 -- -- 74
2020-11-12 16:00:00 13.7 5 Norte 15 Norte 0 -- -- 73
2020-11-12 15:00:00 15 7 Norte 16 Norte 0 -- -- 60
2020-11-12 14:00:00 15.9 0 Calma 6 Este 0 -- -- 49
2020-11-12 13:00:00 15.2 2 Este 6 Sudeste 0 -- -- 49
2020-11-12 12:00:00 13.2 0 Calma 8 Este 0 -- -- 62
2020-11-12 11:00:00 10.6 2 Este 7 Nordeste 0 -- -- 68
2020-11-12 10:00:00 9.4 4 Este 8 Este 0 -- -- 74
2020-11-12 09:00:00 8.7 4 Este 7 Nordeste 0 -- -- 75
2020-11-12 08:00:00 8.1 6 Este 9 Este 0 -- -- 76
2020-11-12 07:00:00 8.4 2 Sudeste 9 Este 0 -- -- 75
2020-11-12 06:00:00 8.2 6 Este 9 Este 0 -- -- 77
2020-11-12 05:00:00 8.5 6 Este 8 Este 0 -- -- 76
2020-11-12 04:00:00 8.9 6 Este 8 Este 0 -- -- 75
2020-11-12 03:00:00 9.6 2 Sudeste 11 Este 0 -- -- 72
2020-11-12 02:00:00 9.3 6 Este 11 Este 0 -- -- 76
2020-11-12 01:00:00 9.4 6 Este 9 Nordeste 0 -- -- 76
2020-11-12 00:00:00 9.4 5 Este 8 Este 0 -- -- 78
2020-11-11 23:00:00 9.3 5 Este 10 Este 0 -- -- 83
2020-11-11 22:00:00 9.5 6 Este 9 Este 0 -- -- 85
2020-11-11 21:00:00 10.5 4 Sudeste 5 Sudeste 0 -- -- 83
2020-11-11 20:00:00 11.7 0 Calma 3 Sur 0 -- -- 78
2020-11-11 19:00:00 12.4 0 Calma 12 Norte 0 -- -- 73
2020-11-11 18:00:00 13.3 2 Nordeste 15 Norte 0 -- -- 67
2020-11-11 17:00:00 15.5 8 Norte 19 Norte 0 -- -- 58
2020-11-11 16:00:00 17.2 8 Norte 18 Nordeste 0 -- -- 56
2020-11-11 15:00:00 18 7 Nordeste 19 Nordeste 0 -- -- 49
2020-11-11 14:00:00 18 7 Norte 18 Norte 0 -- -- 52
2020-11-11 13:00:00 17.4 5 Este 13 Este 0 -- -- 49
2020-11-11 12:00:00 15.9 5 Este 9 Este 0 -- -- 56
2020-11-11 11:00:00 13.2 4 Sudeste 9 Este 0 -- -- 64
2020-11-11 10:00:00 10.6 4 Este 10 Este 0 -- -- 74
2020-11-11 09:00:00 7.9 6 Este 9 Este 0 -- -- 81
2020-11-11 08:00:00 5.8 6 Este 10 Este 0 -- -- 88
2020-11-11 07:00:00 5.9 4 Este 12 Este 0 -- -- 89
2020-11-11 06:00:00 6 7 Este 10 Este 0 -- -- 88
2020-11-11 05:00:00 6 7 Este 9 Este 0 -- -- 88
2020-11-11 04:00:00 6 6 Este 9 Nordeste 0 -- -- 88
2020-11-11 03:00:00 6.7 4 Nordeste 6 Este 0 -- -- 88
2020-11-11 02:00:00 7.2 5 Nordeste 6 Este 0 -- -- 88
2020-11-11 01:00:00 7.6 4 Nordeste 8 Este 0 -- -- 87
2020-11-11 00:00:00 7.9 5 Nordeste 7 Nordeste 0 -- -- 88
2020-11-10 23:00:00 8.4 4 Este 6 Este 0 -- -- 88
2020-11-10 22:00:00 9.7 2 Este 4 Este 0 -- -- 83
2020-11-10 21:00:00 10.5 2 Sudeste 4 Sudeste 0 -- -- 81
2020-11-10 20:00:00 11 0 Calma 7 Sur 0 -- -- 80
2020-11-10 19:00:00 12 0 Calma 13 Noroeste 0 -- -- 74
2020-11-10 18:00:00 13.2 2 Sur 21 Oeste 0 -- -- 67
2020-11-10 17:00:00 15.8 6 Sur 29 Norte 0 -- -- 59
2020-11-10 16:00:00 17 13 Noroeste 30 Noroeste 0 -- -- 50
2020-11-10 15:00:00 16.8 13 Noroeste 23 Oeste 0 -- -- 53
2020-11-10 14:00:00 15.9 11 Oeste 22 Oeste 0 -- -- 56
2020-11-10 13:00:00 16.3 5 Sudeste 18 Oeste 0 -- -- 55
2020-11-10 12:00:00 15.4 5 Sudoeste 10 Oeste 0 -- -- 60
2020-11-10 11:00:00 13.8 3 Sudeste 8 Este 0 -- -- 65
2020-11-10 10:00:00 11.6 4 Este 9 Este 0 -- -- 74
2020-11-10 09:00:00 9.3 7 Este 9 Este 0 -- -- 84
2020-11-10 08:00:00 7.5 3 Este 7 Este 0 -- -- 90
2020-11-10 07:00:00 7.5 4 Este 5 Este 0 -- -- 88
2020-11-10 06:00:00 8.2 0 Calma 3 Este 0 -- -- 87
2020-11-10 05:00:00 8.6 2 Este 10 Noroeste 0 -- -- 86
2020-11-10 04:00:00 9.6 2 Sur 13 Oeste 0 -- -- 81
2020-11-10 03:00:00 10.9 11 Oeste 17 Oeste 0 -- -- 75
2020-11-10 02:00:00 10.4 4 Noroeste 9 Noroeste 0 -- -- 82
2020-11-10 01:00:00 10.3 4 Este 5 Nordeste 0 -- -- 88
2020-11-10 00:00:00 10.4 2 Sur 5 Sur 0 -- -- 88
2020-11-09 23:00:00 11.2 3 Nordeste 5 Sudoeste 0 -- -- 87
2020-11-09 22:00:00 11.7 3 Este 6 Sur 0 -- -- 86
2020-11-09 21:00:00 12.1 3 Sudeste 5 Sudoeste 0 -- -- 83
2020-11-09 20:00:00 12.8 4 Sudoeste 6 Sudoeste 0 -- -- 77
2020-11-09 19:00:00 13.1 4 Sudoeste 8 Oeste 0 -- -- 75
2020-11-09 18:00:00 13.7 3 Nordeste 8 Nordeste 0 -- -- 71
2020-11-09 17:00:00 14.6 5 Este 21 Nordeste 0 -- -- 68
2020-11-09 16:00:00 15.1 9 Este 29 Nordeste 0 -- -- 65
2020-11-09 15:00:00 15.8 6 Este 20 Este 0 -- -- 57
2020-11-09 14:00:00 17.9 9 Este 23 Nordeste 0 -- -- 50
2020-11-09 13:00:00 17.6 4 Norte 14 Este 0 -- -- 52
2020-11-09 12:00:00 16.1 5 Este 8 Este 0 -- -- 59
2020-11-09 11:00:00 13 4 Este 12 Este 0 -- -- 70
2020-11-09 10:00:00 9 3 Este 9 Este 0 -- -- 82
2020-11-09 09:00:00 7.3 5 Nordeste 7 Nordeste 0 -- -- 85
2020-11-09 08:00:00 6.8 2 Este 7 Este 0 -- -- 87
2020-11-09 07:00:00 6.8 6 Este 9 Este 0 -- -- 86
2020-11-09 06:00:00 6.7 5 Este 9 Este 0 -- -- 88
2020-11-09 05:00:00 6.7 4 Este 6 Este 0 -- -- 89
2020-11-09 04:00:00 7.5 3 Este 8 Este 0 -- -- 87
2020-11-09 03:00:00 8 4 Este 9 Este 0 -- -- 86
2020-11-09 02:00:00 8.4 4 Este 6 Este 0 -- -- 91
2020-11-09 01:00:00 9.1 0 Calma 4 Nordeste 0 -- -- 89
2020-11-09 00:00:00 9.5 0 Calma 2 Noroeste 0 -- -- 89
2020-11-08 23:00:00 10 0 Calma 8 Este 0 -- -- 88
2020-11-08 22:00:00 10.7 7 Noroeste 10 Noroeste 0 -- -- 85
2020-11-08 21:00:00 11.4 2 Oeste 5 Nordeste 0 -- -- 83
2020-11-08 20:00:00 11.9 0 Calma 4 Sur 0 -- -- 81
2020-11-08 19:00:00 12.5 0 Calma 13 Norte 0 -- -- 78
2020-11-08 18:00:00 13.1 8 Norte 19 Norte 0 -- -- 75
2020-11-08 17:00:00 15.3 12 Nordeste 19 Nordeste 0 -- -- 67
2020-11-08 16:00:00 17.3 7 Nordeste 17 Nordeste 0 -- -- 59
2020-11-08 15:00:00 18.2 6 Nordeste 17 Este 0 -- -- 57
2020-11-08 14:00:00 18 6 Norte 14 Norte 0 -- -- 57
2020-11-08 13:00:00 17 4 Norte 13 Norte 0 -- -- 60
2020-11-08 12:00:00 15.9 3 Noroeste 8 Noroeste 0 -- -- 63
2020-11-08 11:00:00 13.3 0 Calma 5 Este 0 -- -- 66
2020-11-08 10:00:00 11.2 4 Este 9 Este 0 -- -- 72
2020-11-08 09:00:00 9 5 Este 8 Este 0 -- -- 80
2020-11-08 08:00:00 7.9 2 Sudeste 8 Este 0 -- -- 82
2020-11-08 07:00:00 8.2 2 Este 6 Sudeste 0 -- -- 82
2020-11-08 06:00:00 8.8 5 Este 7 Este 0 -- -- 80
2020-11-08 05:00:00 9.2 3 Este 8 Este 0 -- -- 79
2020-11-08 04:00:00 9.4 3 Este 6 Este 0 -- -- 79
2020-11-08 03:00:00 10 3 Sudeste 7 Sudeste 0 -- -- 77
2020-11-08 02:00:00 10 5 Este 10 Este 0 -- -- 79
2020-11-08 01:00:00 10 3 Norte 14 Este 0 -- -- 80
2020-11-08 00:00:00 10.4 6 Oeste 15 Sudoeste 0 -- -- 78
2020-11-07 23:00:00 10.9 5 Sudeste 9 Sudeste 0 -- -- 77
2020-11-07 22:00:00 10.8 0 Calma 7 Sudeste 0 -- -- 79
2020-11-07 21:00:00 11.4 6 Este 15 Sudoeste 0 -- -- 77
2020-11-07 20:00:00 13.1 7 Sudoeste 12 Sudoeste 0 -- -- 68
2020-11-07 19:00:00 13.2 8 Sudoeste 14 Sudoeste 0 -- -- 68
2020-11-07 18:00:00 13.9 5 Sudoeste 33 Sudoeste 0 -- -- 64
2020-11-07 17:00:00 15.2 21 Sudoeste 29 Sudoeste 0 -- -- 58
2020-11-07 16:00:00 15.3 15 Sudoeste 47 Sudoeste 0 -- -- 59
2020-11-07 15:00:00 15.7 26 Sudoeste 36 Sudoeste 0 -- -- 55
2020-11-07 14:00:00 15.9 6 Sur 14 Sudoeste 0 -- -- 71
2020-11-07 13:00:00 14.6 6 Sur 11 Sudoeste 0 -- -- 81
2020-11-07 12:00:00 13 0 Calma 6 Noroeste 0 -- -- 83
2020-11-07 11:00:00 11.8 0 Calma 8 Sur 0.2 -- -- 93
2020-11-07 10:00:00 10.9 4 Noroeste 12 Este 0.4 -- -- 93
2020-11-07 09:00:00 10.8 5 Este 23 Sudoeste 2.2 -- -- 92
2020-11-07 08:00:00 10.7 6 Sudeste 60 Sudoeste 9.8 -- -- 93
2020-11-07 07:00:00 14.4 5 Sudoeste 15 Este 0.2 -- -- 87
2020-11-07 06:00:00 14.3 6 Este 21 Este 0.4 -- -- 89
2020-11-07 05:00:00 13.9 6 Nordeste 22 Sudeste 2.8 -- -- 90
2020-11-07 04:00:00 14.9 8 Sudeste 17 Sudeste 0 -- -- 82
2020-11-07 03:00:00 14.9 8 Sudeste 25 Sudeste 0 -- -- 82
2020-11-07 02:00:00 14.8 10 Sudeste 23 Sudeste 0 -- -- 83
2020-11-07 01:00:00 14.6 11 Sudeste 38 Sudeste 0 -- -- 82
2020-11-07 00:00:00 14.7 8 Sur 22 Sudeste 0 -- -- 82
2020-11-06 23:00:00 14.8 12 Sudeste 28 Sudeste 0 -- -- 82
2020-11-06 22:00:00 14.7 8 Sudeste 22 Sur 0 -- -- 82
2020-11-06 21:00:00 14.6 12 Este 21 Sur 0 -- -- 82
2020-11-06 20:00:00 14.7 13 Sudeste 30 Sudeste 0 -- -- 81
2020-11-06 19:00:00 14.8 9 Sudeste 32 Sudeste 0 -- -- 82
2020-11-06 18:00:00 14.9 10 Sudeste 32 Sudeste 0 -- -- 82
2020-11-06 17:00:00 15.2 15 Sudeste 30 Sudeste 0 -- -- 81
2020-11-06 16:00:00 15.7 12 Sudeste 29 Este 0 -- -- 79
2020-11-06 15:00:00 15.9 15 Este 25 Este 0 -- -- 81
2020-11-06 14:00:00 15.3 11 Este 27 Sudeste 0 -- -- 82
2020-11-06 13:00:00 15.5 10 Sudeste 26 Sudeste 0 -- -- 81
2020-11-06 12:00:00 15.4 4 Sudeste 14 Sur 0 -- -- 84
2020-11-06 11:00:00 14.7 4 Sudeste 28 Sudeste 0 -- -- 86
2020-11-06 10:00:00 14.6 13 Sudeste 29 Sudeste 0 -- -- 86
2020-11-06 09:00:00 14.1 11 Sudeste 27 Sudeste 0 -- -- 87
2020-11-06 08:00:00 13.4 10 Sudeste 20 Sudeste 0 -- -- 91
2020-11-06 07:00:00 13 5 Sur 22 Sudeste 0 -- -- 91
2020-11-06 06:00:00 13.2 5 Sur 15 Este 0 -- -- 91
2020-11-06 05:00:00 12.4 4 Este 9 Sudeste 0 -- -- 93
2020-11-06 04:00:00 12 3 Sur 13 Sudoeste 0 -- -- 96
2020-11-06 03:00:00 11.9 3 Este 16 Sudeste 0 -- -- 96
2020-11-06 02:00:00 10.3 2 Sudeste 9 Sudeste 0.2 -- -- 97
2020-11-06 01:00:00 10.1 3 Norte 6 Norte 0 -- -- 97
2020-11-06 00:00:00 9.9 5 Sudoeste 12 Sur 0.2 -- -- 97
2020-11-05 23:00:00 9.7 2 Noroeste 15 Este 0.4 -- -- 98
2020-11-05 22:00:00 9.9 3 Nordeste 13 Sudeste 6.4 -- -- 98
2020-11-05 21:00:00 9.3 5 Noroeste 21 Norte 5.6 -- -- 97
2020-11-05 20:00:00 9.4 10 Norte 26 Nordeste 3.4 -- -- 97
2020-11-05 19:00:00 9.4 10 Norte 22 Norte 0.2 -- -- 97
2020-11-05 18:00:00 8.7 5 Noroeste 19 Norte 0.2 -- -- 97
2020-11-05 17:00:00 8.9 0 Calma 15 Norte 0 -- -- 97
2020-11-05 16:00:00 9 2 Este 8 Norte 0 -- -- 97
2020-11-05 15:00:00 8.8 4 Norte 10 Norte 0 -- -- 97
2020-11-05 14:00:00 8.8 3 Este 7 Este 0 -- -- 97
2020-11-05 13:00:00 8 0 Calma 9 Nordeste 0 -- -- 97
2020-11-05 12:00:00 7.9 2 Norte 6 Sur 0 -- -- 97
2020-11-05 11:00:00 7.3 2 Oeste 6 Nordeste 0 -- -- 97
2020-11-05 10:00:00 7 0 Calma 9 Nordeste 0 -- -- 97
2020-11-05 09:00:00 6.7 2 Este 7 Este 0 -- -- 97
2020-11-05 08:00:00 6.4 0 Calma 5 Este 0 -- -- 97
2020-11-05 07:00:00 6.3 0 Calma 5 Sudoeste 0 -- -- 97
2020-11-05 06:00:00 6 0 Calma 3 Norte 0 -- -- 97
2020-11-05 05:00:00 6 0 Calma 4 Sur 0 -- -- 97
2020-11-05 04:00:00 5.9 0 Calma 7 Sur 0 -- -- 97
2020-11-05 03:00:00 5.8 0 Calma 4 Noroeste 0 -- -- 97
2020-11-05 02:00:00 5.8 0 Calma 8 Noroeste 0 -- -- 97
2020-11-05 01:00:00 5.7 0 Calma 7 Este 0.2 -- -- 97
2020-11-05 00:00:00 5.8 4 Este 9 Norte 0.4 -- -- 96
2020-11-04 23:00:00 5.8 0 Calma 4 Este 0.2 -- -- 96
2020-11-04 22:00:00 5.6 2 Noroeste 7 Nordeste 0 -- -- 96
2020-11-04 21:00:00 5.6 0 Calma 5 Norte 0 -- -- 96
2020-11-04 20:00:00 5.5 3 Nordeste 15 Nordeste 0.2 -- -- 96
2020-11-04 19:00:00 5.7 3 Norte 11 Nordeste 0 -- -- 96
2020-11-04 18:00:00 5.9 2 Nordeste 7 Este 0 -- -- 95
2020-11-04 17:00:00 5.9 2 Nordeste 10 Nordeste 0.6 -- -- 95
2020-11-04 16:00:00 5.9 0 Calma 10 Nordeste 1.2 -- -- 95
2020-11-04 15:00:00 5.7 5 Este 12 Nordeste 0.6 -- -- 95
2020-11-04 14:00:00 5.7 4 Nordeste 9 Este 1.2 -- -- 95
2020-11-04 13:00:00 5.8 4 Este 8 Este 2.6 -- -- 95
2020-11-04 12:00:00 5.7 3 Sudoeste 9 Este 1.4 -- -- 95
2020-11-04 11:00:00 5.3 3 Este 6 Este 1.8 -- -- 95
2020-11-04 10:00:00 5.2 3 Este 5 Este 2.4 -- -- 95
2020-11-04 09:00:00 5.2 2 Sudeste 5 Sudeste 4 -- -- 95
2020-11-04 08:00:00 5.3 2 Este 6 Este 2.2 -- -- 95
2020-11-04 07:00:00 5.2 0 Calma 6 Este 2.6 -- -- 94
2020-11-04 06:00:00 5.4 3 Este 9 Este 2.6 -- -- 93
2020-11-04 05:00:00 5.7 6 Este 35 Oeste 2.8 -- -- 90
2020-11-04 04:00:00 5.8 15 Oeste 32 Oeste 4 -- -- 88
2020-11-04 03:00:00 6.2 6 Sudeste 31 Noroeste 2.6 -- -- 87
2020-11-04 02:00:00 6.8 9 Oeste 33 Noroeste 0 -- -- 82
2020-11-04 01:00:00 7.2 9 Oeste 39 Oeste 0.2 -- -- 83
2020-11-04 00:00:00 7.6 8 Oeste 34 Noroeste 0 -- -- 84
2020-11-03 23:00:00 8 10 Oeste 25 Oeste 0.4 -- -- 86
2020-11-03 22:00:00 9.1 7 Oeste 21 Noroeste 0 -- -- 81
2020-11-03 21:00:00 9.3 8 Noroeste 17 Noroeste 0 -- -- 82
2020-11-03 20:00:00 9.2 8 Oeste 25 Oeste 0.2 -- -- 83
2020-11-03 19:00:00 9 7 Sudoeste 32 Noroeste 0 -- -- 84
2020-11-03 18:00:00 9.1 14 Oeste 27 Oeste 0.6 -- -- 84
2020-11-03 17:00:00 9.7 5 Oeste 21 Noroeste 1.4 -- -- 85
2020-11-03 16:00:00 10.3 2 Sur 19 Sudoeste 1.4 -- -- 85
2020-11-03 15:00:00 10.8 13 Oeste 26 Oeste 0 -- -- 81
2020-11-03 14:00:00 11.4 8 Oeste 26 Oeste 0 -- -- 78
2020-11-03 13:00:00 12.1 8 Oeste 24 Oeste 0 -- -- 77
2020-11-03 12:00:00 12.5 7 Noroeste 26 Oeste 0 -- -- 76
2020-11-03 11:00:00 13 8 Noroeste 19 Norte 0 -- -- 75
2020-11-03 10:00:00 12.9 0 Calma 4 Norte 0 -- -- 66
2020-11-03 09:00:00 12.7 0 Calma 9 Este 0 -- -- 61
2020-11-03 08:00:00 10.8 0 Calma 5 Oeste 0 -- -- 66
2020-11-03 07:00:00 10.8 0 Calma 7 Este 0 -- -- 65
2020-11-03 06:00:00 10.8 8 Este 9 Este 0 -- -- 65
2020-11-03 05:00:00 10.8 5 Este 6 Este 0 -- -- 65
2020-11-03 04:00:00 11.2 3 Sudeste 5 Sudeste 0 -- -- 63
2020-11-03 03:00:00 12.2 3 Nordeste 5 Este 0 -- -- 60
2020-11-03 02:00:00 12.7 4 Este 6 Este 0 -- -- 57
2020-11-03 01:00:00 13.4 3 Sudeste 4 Nordeste 0 -- -- 55
2020-11-03 00:00:00 14.4 0 Calma 4 Este 0 -- -- 53
2020-11-02 23:00:00 14.8 3 Este 6 Sudeste 0 -- -- 51
2020-11-02 22:00:00 16.1 4 Este 5 Este 0 -- -- 48
2020-11-02 21:00:00 17 5 Este 6 Este 0 -- -- 46
2020-11-02 20:00:00 18.6 0 Calma 7 Este 0 -- -- 42
2020-11-02 19:00:00 19.4 5 Norte 11 Nordeste 0 -- -- 40
2020-11-02 18:00:00 20.5 6 Norte 22 Este 0 -- -- 38
2020-11-02 17:00:00 22.5 10 Nordeste 26 Nordeste 0 -- -- 34
2020-11-02 16:00:00 23.9 8 Este 21 Este 0 -- -- 33
2020-11-02 15:00:00 24.4 11 Este 21 Este 0 -- -- 32
2020-11-02 14:00:00 24.9 6 Norte 21 Este 0 -- -- 30
2020-11-02 13:00:00 24.3 3 Nordeste 19 Nordeste 0 -- -- 30
2020-11-02 12:00:00 22.7 5 Este 12 Este 0 -- -- 31
2020-11-02 11:00:00 20.2 5 Este 10 Este 0 -- -- 36
2020-11-02 10:00:00 16.7 5 Este 10 Este 0 -- -- 44
2020-11-02 09:00:00 13.5 7 Este 12 Este 0 -- -- 51
2020-11-02 08:00:00 11 8 Nordeste 10 Este 0 -- -- 58
2020-11-02 07:00:00 10.2 6 Nordeste 10 Este 0 -- -- 61
2020-11-02 06:00:00 10.9 5 Este 11 Este 0 -- -- 59
2020-11-02 05:00:00 11 9 Este 13 Este 0 -- -- 58
2020-11-02 04:00:00 11.7 6 Este 12 Este 0 -- -- 56
2020-11-02 03:00:00 11.8 8 Este 12 Este 0 -- -- 57
2020-11-02 02:00:00 12.3 8 Este 13 Este 0 -- -- 55
2020-11-02 01:00:00 12.6 6 Este 12 Este 0 -- -- 56
2020-11-02 00:00:00 12.8 7 Este 10 Este 0 -- -- 57
2020-11-01 23:00:00 13.4 8 Este 12 Este 0 -- -- 62
2020-11-01 22:00:00 14.4 5 Este 9 Nordeste 0 -- -- 61
2020-11-01 21:00:00 16 4 Este 5 Este 0 -- -- 58
2020-11-01 20:00:00 17.7 3 Sudoeste 5 Sudeste 0 -- -- 53
2020-11-01 19:00:00 18.8 0 Calma 8 Norte 0 -- -- 50
2020-11-01 18:00:00 20.3 2 Norte 8 Norte 0 -- -- 47
2020-11-01 17:00:00 22.5 4 Norte 18 Norte 0 -- -- 42
2020-11-01 16:00:00 23.1 6 Nordeste 22 Este 0 -- -- 41
2020-11-01 15:00:00 23.9 12 Este 27 Este 0 -- -- 37
2020-11-01 14:00:00 24.5 9 Este 25 Este 0 -- -- 34
2020-11-01 13:00:00 23.6 9 Este 17 Este 0 -- -- 34
2020-11-01 12:00:00 22 4 Sudeste 12 Sur 0 -- -- 37
2020-11-01 11:00:00 20 3 Sur 8 Este 0 -- -- 41
2020-11-01 10:00:00 16.5 4 Este 7 Nordeste 0 -- -- 49
2020-11-01 09:00:00 13.5 5 Nordeste 10 Este 0 -- -- 56
2020-11-01 08:00:00 11.5 9 Este 13 Este 0 -- -- 62
2020-11-01 07:00:00 11 8 Este 12 Este 0 -- -- 64
2020-11-01 06:00:00 11.1 6 Este 10 Este 0 -- -- 62
2020-11-01 05:00:00 11.5 8 Este 10 Este 0 -- -- 61
2020-11-01 04:00:00 11.8 4 Este 8 Nordeste 0 -- -- 59
2020-11-01 03:00:00 12.2 7 Este 9 Nordeste 0 -- -- 57
2020-11-01 02:00:00 12.3 6 Este 13 Este 0 -- -- 56
2020-11-01 01:00:00 13.3 3 Sudeste 9 Este 0 -- -- 53
2020-11-01 00:00:00 13.6 5 Este 9 Este 0 -- -- 51
2020-10-31 23:00:00 14.3 8 Nordeste 10 Este 0 -- -- 50
2020-10-31 22:00:00 15.3 3 Este 8 Este 0 -- -- 47
2020-10-31 21:00:00 15.6 3 Sudeste 9 Sur 0 -- -- 46
2020-10-31 20:00:00 17.7 3 Este 6 Oeste 0 -- -- 41
2020-10-31 19:00:00 18.8 3 Oeste 8 Norte 0 -- -- 39
2020-10-31 18:00:00 20.3 4 Nordeste 10 Nordeste 0 -- -- 37
2020-10-31 17:00:00 22.6 5 Este 16 Norte 0 -- -- 32
2020-10-31 16:00:00 23.6 8 Este 26 Este 0 -- -- 30
2020-10-31 15:00:00 24.3 9 Este 19 Norte 0 -- -- 29
2020-10-31 14:00:00 23.6 8 Norte 26 Nordeste 0 -- -- 30
2020-10-31 13:00:00 22.6 8 Norte 18 Nordeste 0 -- -- 31
2020-10-31 12:00:00 21.4 5 Este 10 Este 0 -- -- 32
2020-10-31 11:00:00 19 4 Sudeste 9 Este 0 -- -- 34
2020-10-31 10:00:00 15.4 3 Este 8 Nordeste 0 -- -- 40
2020-10-31 09:00:00 11.9 6 Este 8 Este 0 -- -- 46
2020-10-31 08:00:00 9.5 9 Este 12 Este 0 -- -- 52
2020-10-31 07:00:00 8.8 8 Este 12 Este 0 -- -- 55
2020-10-31 06:00:00 9 6 Este 10 Este 0 -- -- 55
2020-10-31 05:00:00 9.3 5 Este 12 Este 0 -- -- 57
2020-10-31 04:00:00 9.4 9 Este 11 Este 0 -- -- 57
2020-10-31 03:00:00 9.8 7 Este 10 Este 0 -- -- 59
2020-10-31 02:00:00 10.3 6 Este 9 Nordeste 0 -- -- 62
2020-10-31 01:00:00 10.7 5 Este 7 Este 0 -- -- 63
2020-10-31 00:00:00 11.5 5 Nordeste 7 Nordeste 0 -- -- 64
2020-10-30 23:00:00 11.7 4 Este 6 Este 0 -- -- 66
2020-10-30 22:00:00 12.9 6 Nordeste 7 Nordeste 0 -- -- 64
2020-10-30 21:00:00 14.5 3 Este 4 Este 0 -- -- 59
2020-10-30 20:00:00 15.3 2 Oeste 5 Oeste 0 -- -- 56
2020-10-30 19:00:00 16.3 0 Calma 15 Norte 0 -- -- 52
2020-10-30 18:00:00 18 9 Norte 19 Nordeste 0 -- -- 48
2020-10-30 17:00:00 20.6 10 Norte 19 Nordeste 0 -- -- 42
2020-10-30 16:00:00 22 8 Norte 20 Nordeste 0 -- -- 34
2020-10-30 15:00:00 22.4 9 Norte 23 Nordeste 0 -- -- 37
2020-10-30 14:00:00 22.3 10 Nordeste 22 Nordeste 0 -- -- 32
2020-10-30 13:00:00 22.6 4 Este 10 Nordeste 0 -- -- 31
2020-10-30 12:00:00 21 4 Sudeste 8 Este 0 -- -- 32
2020-10-30 11:00:00 17.6 2 Sudeste 6 Sur 0 -- -- 41
2020-10-30 10:00:00 13.7 5 Este 9 Este 0 -- -- 44
2020-10-30 09:00:00 10.7 4 Este 8 Este 0 -- -- 56
2020-10-30 08:00:00 8.5 8 Este 9 Este 0 -- -- 62
2020-10-30 07:00:00 8.3 5 Nordeste 9 Este 0 -- -- 64
2020-10-30 06:00:00 8.6 4 Este 8 Este 0 -- -- 69
2020-10-30 05:00:00 8.9 5 Este 10 Este 0 -- -- 68
2020-10-30 04:00:00 9.6 6 Este 10 Nordeste 0 -- -- 68
2020-10-30 03:00:00 9.7 7 Nordeste 11 Este 0 -- -- 74
2020-10-30 02:00:00 9.7 6 Este 9 Este 0 -- -- 76
2020-10-30 01:00:00 10.2 8 Este 9 Este 0 -- -- 75
2020-10-30 00:00:00 10.8 3 Este 6 Este 0 -- -- 75
2020-10-29 23:00:00 11.9 3 Este 6 Oeste 0 -- -- 73
2020-10-29 22:00:00 12.4 0 Calma 6 Sur 0 -- -- 71
2020-10-29 21:00:00 14.1 0 Calma 4 Nordeste 0 -- -- 66
2020-10-29 20:00:00 14.7 3 Norte 12 Norte 0 -- -- 64
2020-10-29 19:00:00 15.7 9 Norte 15 Norte 0 -- -- 61
2020-10-29 18:00:00 17 9 Norte 21 Nordeste 0 -- -- 56
2020-10-29 17:00:00 19.4 11 Nordeste 24 Norte 0 -- -- 49
2020-10-29 16:00:00 21.7 6 Este 24 Este 0 -- -- 43
2020-10-29 15:00:00 22.7 4 Norte 14 Sur 0 -- -- 41
2020-10-29 14:00:00 21.3 5 Noroeste 12 Noroeste 0 -- -- 44
2020-10-29 13:00:00 19.4 5 Oeste 18 Norte 0 -- -- 50
2020-10-29 12:00:00 17.9 8 Nordeste 18 Norte 0 -- -- 52
2020-10-29 11:00:00 16.7 3 Sudeste 12 Sur 0 -- -- 57
2020-10-29 10:00:00 13.8 4 Sudeste 8 Este 0 -- -- 67
2020-10-29 09:00:00 11.8 6 Este 11 Nordeste 0 -- -- 75
2020-10-29 08:00:00 10 3 Sur 5 Este 0 -- -- 81
2020-10-29 07:00:00 9.3 4 Este 10 Este 0 -- -- 83
2020-10-29 06:00:00 9.5 6 Este 9 Este 0 -- -- 83
2020-10-29 05:00:00 10 0 Calma 8 Este 0 -- -- 81
2020-10-29 04:00:00 10.4 2 Sudeste 6 Este 0 -- -- 79
2020-10-29 03:00:00 11.1 0 Calma 8 Oeste 0 -- -- 76
2020-10-29 02:00:00 13.2 6 Oeste 12 Oeste 0 -- -- 71
2020-10-29 01:00:00 13.1 8 Oeste 12 Oeste 0 -- -- 73
2020-10-29 00:00:00 12.8 3 Noroeste 13 Oeste 0 -- -- 72
2020-10-28 23:00:00 12.4 3 Sudoeste 16 Oeste 0 -- -- 72
2020-10-28 22:00:00 13 3 Oeste 11 Oeste 0 -- -- 70
2020-10-28 21:00:00 14 2 Sudeste 6 Este 0 -- -- 65
2020-10-28 20:00:00 14.9 2 Sur 5 Nordeste 0 -- -- 62
2020-10-28 19:00:00 15.8 0 Calma 9 Nordeste 0 -- -- 59
2020-10-28 18:00:00 17 6 Norte 15 Nordeste 0 -- -- 56
2020-10-28 17:00:00 18.5 9 Nordeste 23 Este 0 -- -- 52
2020-10-28 16:00:00 19.5 10 Nordeste 23 Nordeste 0 -- -- 50
2020-10-28 15:00:00 18.8 8 Este 25 Este 0 -- -- 52
2020-10-28 14:00:00 19.3 10 Este 27 Este 0 -- -- 50
2020-10-28 13:00:00 19 8 Este 24 Este 0 -- -- 50
2020-10-28 12:00:00 19.8 7 Este 17 Este 0 -- -- 48
2020-10-28 11:00:00 17.7 6 Este 11 Este 0 -- -- 53
2020-10-28 10:00:00 13.4 3 Este 5 Sudeste 0 -- -- 65
2020-10-28 09:00:00 12.8 0 Calma 8 Este 0 -- -- 65
2020-10-28 08:00:00 11.2 3 Este 6 Sudeste 0 -- -- 69
2020-10-28 07:00:00 10.6 4 Este 5 Este 0 -- -- 71
2020-10-28 06:00:00 10.8 0 Calma 16 Oeste 0 -- -- 69
2020-10-28 05:00:00 11 10 Oeste 20 Oeste 0 -- -- 68
2020-10-28 04:00:00 10.4 5 Este 25 Oeste 0 -- -- 66
2020-10-28 03:00:00 10.7 3 Sudeste 8 Este 0 -- -- 63
2020-10-28 02:00:00 10.7 3 Este 6 Este 0 -- -- 62
2020-10-28 01:00:00 11.2 3 Nordeste 5 Oeste 0 -- -- 60
2020-10-28 00:00:00 11.4 2 Este 11 Sudoeste 0 -- -- 58
2020-10-27 23:00:00 11.8 5 Sudoeste 35 Sudoeste 0 -- -- 57
2020-10-27 22:00:00 12.4 14 Sudoeste 29 Sudoeste 0 -- -- 55
2020-10-27 21:00:00 12.5 0 Calma 13 Oeste 0 -- -- 54
2020-10-27 20:00:00 12.9 10 Oeste 15 Noroeste 0 -- -- 54
2020-10-27 19:00:00 13.7 8 Oeste 21 Noroeste 0 -- -- 50
2020-10-27 18:00:00 14.9 12 Noroeste 24 Noroeste 0 -- -- 46
2020-10-27 17:00:00 17.3 4 Sur 23 Oeste 0 -- -- 41
2020-10-27 16:00:00 17.6 10 Noroeste 27 Oeste 0 -- -- 38
2020-10-27 15:00:00 17.1 11 Noroeste 33 Noroeste 0 -- -- 38
2020-10-27 14:00:00 14.8 15 Oeste 35 Sudoeste 0 -- -- 39
2020-10-27 13:00:00 14.1 8 Sudoeste 35 Sudoeste 0 -- -- 42
2020-10-27 12:00:00 12.6 17 Sudoeste 35 Sudoeste 0 -- -- 47
2020-10-27 11:00:00 11 18 Sudoeste 36 Sudoeste 0 -- -- 53
2020-10-27 10:00:00 9.9 9 Oeste 27 Sudoeste 0 -- -- 56
2020-10-27 09:00:00 8.5 12 Oeste 31 Oeste 0 -- -- 62
2020-10-27 08:00:00 7.7 22 Oeste 46 Oeste 0 -- -- 63
2020-10-27 07:00:00 7.7 26 Oeste 42 Oeste 0 -- -- 62
2020-10-27 06:00:00 7.9 22 Oeste 40 Sudoeste 0 -- -- 61
2020-10-27 05:00:00 7.8 9 Oeste 29 Noroeste 0 -- -- 61
2020-10-27 04:00:00 8 17 Oeste 44 Oeste 0 -- -- 61
2020-10-27 03:00:00 8.5 26 Sudoeste 53 Sudoeste 0 -- -- 58
2020-10-27 02:00:00 8.5 31 Sudoeste 50 Sudoeste 0 -- -- 56
2020-10-27 01:00:00 8.4 17 Oeste 28 Oeste 0 -- -- 56
2020-10-27 00:00:00 8.4 10 Oeste 28 Oeste 0 -- -- 54